Latest Weather Observations for Thevenard

IDS60801

Issued at 11:35 pm CDT Thursday 27 November 2014 (issued every 30 minutes, with the page automatically refreshed every 10 minutes)

About weather observations | Map of weather stations | Latest weather observations for SA | Other Formats
Station Details ID: 018200 Name: THEVENARD WIND Lat: -32.18 Lon: 133.63 Height: 8.85 m
Data from the previous 72 hours. | See also: Recent months for locations in South Australia
Date/Time
CDT
Temp
°C
App
Temp
°C
Dew
Point
Rel
Hum
%
Delta-T
°C
Wind Press
QNH
hPa
Press
MSL
hPa
Rain
since 9 am
mm
Dir
 
Spd
km/h
Gust
km/h
Spd
kts
Gust
kts
27/11:30pm - - - - - SE 20 28 11 15 - - -
27/11:00pm - - - - - SE 24 30 13 16 - - -
27/10:30pm - - - - - SE 24 32 13 17 - - -
27/10:00pm - - - - - SSE 28 32 15 17 - - -
27/09:30pm - - - - - SSE 32 39 17 21 - - -
27/09:00pm - - - - - SSE 32 39 17 21 - - -
27/08:30pm - - - - - SSE 35 39 19 21 - - -
27/08:00pm - - - - - SSE 37 44 20 24 - - -
27/07:30pm - - - - - SSE 41 48 22 26 - - -
27/07:00pm - - - - - SSE 43 50 23 27 - - -
27/06:30pm - - - - - SSE 44 54 24 29 - - -
27/06:00pm - - - - - S 44 52 24 28 - - -
27/05:30pm - - - - - S 43 50 23 27 - - -
27/05:00pm - - - - - S 39 44 21 24 - - -
27/04:30pm - - - - - S 41 46 22 25 - - -
27/04:00pm - - - - - S 39 44 21 24 - - -
27/03:30pm - - - - - S 37 43 20 23 - - -
27/03:00pm - - - - - S 35 43 19 23 - - -
27/02:30pm - - - - - S 35 39 19 21 - - -
27/02:00pm - - - - - S 33 39 18 21 - - -
27/01:30pm - - - - - S 32 35 17 19 - - -
27/01:00pm - - - - - S 28 32 15 17 - - -
27/12:30pm - - - - - S 26 30 14 16 - - -
27/12:00pm - - - - - S 22 24 12 13 - - -
27/11:30am - - - - - S 19 22 10 12 - - -
27/11:00am - - - - - S 19 22 10 12 - - -
27/10:30am - - - - - S 17 19 9 10 - - -
27/10:00am - - - - - SSE 13 15 7 8 - - -
27/09:30am - - - - - SE 11 13 6 7 - - -
27/09:00am - - - - - SE 13 17 7 9 - - -
27/08:30am - - - - - ESE 13 22 7 12 - - -
27/08:00am - - - - - ESE 24 30 13 16 - - -
27/07:30am - - - - - ESE 28 35 15 19 - - -
27/07:00am - - - - - ESE 30 39 16 21 - - -
27/06:30am - - - - - ESE 28 37 15 20 - - -
27/06:00am - - - - - ESE 24 33 13 18 - - -
27/05:30am - - - - - ESE 24 35 13 19 - - -
27/05:00am - - - - - ESE 32 37 17 20 - - -
27/04:30am - - - - - ESE 32 39 17 21 - - -
27/04:00am - - - - - ESE 33 43 18 23 - - -
27/03:30am - - - - - ESE 35 44 19 24 - - -
27/03:00am - - - - - ESE 37 46 20 25 - - -
27/02:30am - - - - - ESE 33 46 18 25 - - -
27/02:00am - - - - - ESE 32 43 17 23 - - -
27/01:30am - - - - - ESE 33 44 18 24 - - -
27/01:00am - - - - - ESE 30 39 16 21 - - -
27/12:30am - - - - - SE 30 39 16 21 - - -
27/12:00am - - - - - SE 35 43 19 23 - - -
 
Date/Time
CDT
Temp
°C
App
Temp
°C
Dew
Point
Rel
Hum
%
Delta-T
°C
Wind Press
QNH
hPa
Press
MSL
hPa
Rain
since 9 am
mm
Dir
 
Spd
km/h
Gust
km/h
Spd
kts
Gust
kts
26/11:30pm - - - - - SE 33 41 18 22 - - -
26/11:00pm - - - - - SSE 32 37 17 20 - - -
26/10:30pm - - - - - SSE 33 41 18 22 - - -
26/10:00pm - - - - - SSE 41 48 22 26 - - -
26/09:30pm - - - - - SSE 41 50 22 27 - - -
26/09:00pm - - - - - SSE 43 48 23 26 - - -
26/08:30pm - - - - - SSE 44 54 24 29 - - -
26/08:00pm - - - - - SSE 44 52 24 28 - - -
26/07:30pm - - - - - SSE 46 54 25 29 - - -
26/07:00pm - - - - - S 44 54 24 29 - - -
26/06:30pm - - - - - S 46 54 25 29 - - -
26/06:00pm - - - - - S 46 54 25 29 - - -
26/05:30pm - - - - - S 43 52 23 28 - - -
26/05:00pm - - - - - S 44 54 24 29 - - -
26/04:30pm - - - - - S 44 52 24 28 - - -
26/04:00pm - - - - - S 44 54 24 29 - - -
26/03:30pm - - - - - S 44 52 24 28 - - -
26/03:00pm - - - - - S 43 50 23 27 - - -
26/02:30pm - - - - - S 43 52 23 28 - - -
26/02:00pm - - - - - S 41 48 22 26 - - -
26/01:30pm - - - - - S 39 46 21 25 - - -
26/01:00pm - - - - - S 39 44 21 24 - - -
26/12:30pm - - - - - S 35 41 19 22 - - -
26/12:00pm - - - - - S 30 37 16 20 - - -
26/11:30am - - - - - S 26 32 14 17 - - -
26/11:00am - - - - - SSE 24 30 13 16 - - -
26/10:30am - - - - - SSE 24 30 13 16 - - -
26/10:00am - - - - - SE 22 32 12 17 - - -
26/09:30am - - - - - SE 24 33 13 18 - - -
26/09:00am - - - - - ESE 26 39 14 21 - - -
26/08:30am - - - - - ESE 28 39 15 21 - - -
26/08:00am - - - - - ESE 32 44 17 24 - - -
26/07:30am - - - - - ESE 32 46 17 25 - - -
26/07:00am - - - - - ESE 35 44 19 24 - - -
26/06:30am - - - - - ESE 32 44 17 24 - - -
26/06:00am - - - - - ESE 30 43 16 23 - - -
26/05:30am - - - - - ESE 30 41 16 22 - - -
26/05:00am - - - - - ESE 32 44 17 24 - - -
26/04:30am - - - - - SE 28 37 15 20 - - -
26/04:00am - - - - - ESE 35 44 19 24 - - -
26/03:30am - - - - - ESE 28 44 15 24 - - -
26/03:00am - - - - - ESE 30 41 16 22 - - -
26/02:30am - - - - - SE 33 43 18 23 - - -
26/02:00am - - - - - SE 33 41 18 22 - - -
26/01:30am - - - - - SSE 35 43 19 23 - - -
26/01:00am - - - - - SSE 35 41 19 22 - - -
26/12:30am - - - - - SSE 35 43 19 23 - - -
26/12:00am - - - - - SSE 35 43 19 23 - - -
 
Date/Time
CDT
Temp
°C
App
Temp
°C
Dew
Point
Rel
Hum
%
Delta-T
°C
Wind Press
QNH
hPa
Press
MSL
hPa
Rain
since 9 am
mm
Dir
 
Spd
km/h
Gust
km/h
Spd
kts
Gust
kts
25/11:30pm - - - - - SSE 39 46 21 25 - - -
25/11:00pm - - - - - SSE 39 46 21 25 - - -
25/10:30pm - - - - - SSE 39 46 21 25 - - -
25/10:00pm - - - - - SSE 39 48 21 26 - - -
25/09:30pm - - - - - S 37 46 20 25 - - -
25/09:00pm - - - - - SSE 39 48 21 26 - - -
25/08:30pm - - - - - SSE 41 48 22 26 - - -
25/08:00pm - - - - - S 39 48 21 26 - - -
25/07:30pm - - - - - S 41 46 22 25 - - -
25/07:00pm - - - - - S 39 48 21 26 - - -
25/06:30pm - - - - - S 37 43 20 23 - - -
25/06:00pm - - - - - S 35 44 19 24 - - -
25/05:30pm - - - - - S 33 41 18 22 - - -
25/05:00pm - - - - - S 35 43 19 23 - - -
25/04:30pm - - - - - S 35 43 19 23 - - -
25/04:00pm - - - - - S 35 43 19 23 - - -
25/03:30pm - - - - - S 35 43 19 23 - - -
25/03:00pm - - - - - S 33 41 18 22 - - -
25/02:30pm - - - - - S 33 39 18 21 - - -
25/02:00pm - - - - - S 32 37 17 20 - - -
25/01:30pm - - - - - S 30 35 16 19 - - -
25/01:00pm - - - - - S 30 33 16 18 - - -
25/12:30pm - - - - - S 26 32 14 17 - - -
25/12:00pm - - - - - S 24 33 13 18 - - -
25/11:30am - - - - - S 19 26 10 14 - - -
25/11:00am - - - - - S 19 24 10 13 - - -
25/10:30am - - - - - SSE 15 24 8 13 - - -
25/10:00am - - - - - ESE 13 20 7 11 - - -
25/09:30am - - - - - SE 17 24 9 13 - - -
25/09:00am - - - - - ESE 15 24 8 13 - - -
25/08:30am - - - - - ESE 17 24 9 13 - - -
25/08:00am - - - - - ESE 17 22 9 12 - - -
25/07:30am - - - - - ESE 17 24 9 13 - - -
25/07:00am - - - - - SE 13 20 7 11 - - -
25/06:30am - - - - - SSE 26 35 14 19 - - -
25/06:00am - - - - - SSE 26 33 14 18 - - -
25/05:30am - - - - - SSE 28 33 15 18 - - -
25/05:00am - - - - - SSE 28 35 15 19 - - -
25/04:30am - - - - - SSE 20 28 11 15 - - -
25/04:00am - - - - - S 24 32 13 17 - - -
25/03:30am - - - - - S 24 33 13 18 - - -
25/03:00am - - - - - S 24 33 13 18 - - -
25/02:30am - - - - - SSE 24 33 13 18 - - -
25/02:00am - - - - - SSE 26 33 14 18 - - -
25/01:30am - - - - - S 26 33 14 18 - - -
25/01:00am - - - - - S 28 37 15 20 - - -
25/12:30am - - - - - S 28 33 15 18 - - -
25/12:00am - - - - - S 32 39 17 21 - - -

Other Formats:

Comma delimited format used in spreadsheet applications
http://www.bom.gov.au/fwo/IDS60801/IDS60801.95653.axf

JavaScript Object Notation format (JSON) in row-major order
http://www.bom.gov.au/fwo/IDS60801/IDS60801.95653.json